createdAt,value
2022-11-27T00:01:21.887Z,4.18
2022-11-27T00:03:50.018Z,4.12
2022-11-27T00:06:20.303Z,4.07
2022-11-27T00:08:48.633Z,4.01
2022-11-27T00:11:18.855Z,3.98
2022-11-27T00:13:46.938Z,3.94
2022-11-27T00:16:15.488Z,3.89
2022-11-27T00:18:45.206Z,3.88
2022-11-27T00:21:15.639Z,3.87
2022-11-27T00:23:43.862Z,3.93
2022-11-27T00:26:11.883Z,4.01
2022-11-27T00:28:39.743Z,4.11
2022-11-27T00:31:13.741Z,4.16
2022-11-27T00:33:41.573Z,4.20
2022-11-27T00:36:11.588Z,4.28
2022-11-27T00:38:39.697Z,4.36
2022-11-27T00:41:08.254Z,4.40
2022-11-27T00:43:43.607Z,4.39
2022-11-27T00:46:12.652Z,4.35
2022-11-27T00:48:40.260Z,4.32
2022-11-27T00:51:11.175Z,4.29
2022-11-27T00:53:38.768Z,4.26
2022-11-27T00:56:07.028Z,4.24
2022-11-27T00:58:34.538Z,4.20
2022-11-27T01:01:03.832Z,4.18
2022-11-27T01:03:32.903Z,4.19
2022-11-27T01:06:03.261Z,4.20
2022-11-27T01:08:32.587Z,4.21
2022-11-27T01:11:00.609Z,4.21
2022-11-27T01:13:30.939Z,4.20
2022-11-27T01:16:01.802Z,4.20
2022-11-27T01:18:30.383Z,4.19
2022-11-27T01:20:57.938Z,4.16
2022-11-27T01:23:26.798Z,4.10
2022-11-27T01:25:55.758Z,4.09
2022-11-27T01:28:24.730Z,4.09
2022-11-27T01:30:52.761Z,4.10
2022-11-27T01:33:20.961Z,4.07
2022-11-27T01:35:55.625Z,4.05
2022-11-27T01:38:23.935Z,4.00
2022-11-27T01:40:58.976Z,3.98
2022-11-27T01:43:43.072Z,4.00
2022-11-27T01:46:28.074Z,4.02
2022-11-27T01:49:01.214Z,4.05
2022-11-27T01:51:29.093Z,4.07
2022-11-27T01:53:57.354Z,4.08
2022-11-27T01:56:28.614Z,4.10
2022-11-27T01:58:58.181Z,4.13
2022-11-27T02:01:26.282Z,4.15
2022-11-27T02:03:54.216Z,4.16
2022-11-27T02:06:21.746Z,4.16
2022-11-27T02:08:49.431Z,4.13
2022-11-27T02:11:25.275Z,4.09
2022-11-27T02:14:03.715Z,4.05
2022-11-27T02:16:37.784Z,4.03
2022-11-27T02:19:13.601Z,3.98
2022-11-27T02:21:52.834Z,3.98
2022-11-27T02:24:39.046Z,3.99
2022-11-27T02:27:23.176Z,4.00
2022-11-27T02:29:56.696Z,4.01
2022-11-27T02:32:28.408Z,4.01
2022-11-27T02:35:02.431Z,4.02
2022-11-27T02:37:34.784Z,4.05
2022-11-27T02:40:07.954Z,4.07
2022-11-27T02:42:40.552Z,4.10
2022-11-27T02:45:13.826Z,4.13
2022-11-27T02:47:43.892Z,4.15
2022-11-27T02:50:16.274Z,4.14
2022-11-27T02:52:46.258Z,4.13
2022-11-27T02:55:17.989Z,4.12
2022-11-27T02:57:47.171Z,4.12
2022-11-27T03:00:17.241Z,4.13
2022-11-27T03:02:49.737Z,4.15
2022-11-27T03:05:20.963Z,4.16
2022-11-27T03:07:55.163Z,4.18
2022-11-27T03:10:30.827Z,4.19
2022-11-27T03:12:59.531Z,4.19
2022-11-27T03:15:35.570Z,4.20
2022-11-27T03:18:12.756Z,4.20
2022-11-27T03:20:44.599Z,4.22
2022-11-27T03:23:12.147Z,4.26
2022-11-27T03:25:39.685Z,4.27
2022-11-27T03:28:11.446Z,4.27
2022-11-27T03:30:41.414Z,4.26
2022-11-27T03:33:09.018Z,4.25
2022-11-27T03:35:36.570Z,4.24
2022-11-27T03:38:04.317Z,4.25
2022-11-27T03:40:43.658Z,4.25
2022-11-27T03:43:15.253Z,4.25
2022-11-27T03:45:53.662Z,4.26
2022-11-27T03:48:27.285Z,4.26
2022-11-27T03:51:05.030Z,4.28
2022-11-27T03:53:45.341Z,4.28
2022-11-27T03:56:19.161Z,4.29
2022-11-27T03:58:51.538Z,4.29
2022-11-27T04:01:24.220Z,4.30
2022-11-27T04:03:52.012Z,4.31
2022-11-27T04:06:19.772Z,4.32
2022-11-27T04:08:48.034Z,4.32
2022-11-27T04:11:16.295Z,4.32
2022-11-27T04:13:43.939Z,4.30
2022-11-27T04:16:11.597Z,4.27
2022-11-27T04:18:40.523Z,4.23
2022-11-27T04:21:08.068Z,4.22
2022-11-27T04:23:37.608Z,4.19
2022-11-27T04:26:05.452Z,4.18
2022-11-27T04:28:33.287Z,4.14
2022-11-27T04:31:00.841Z,4.07
2022-11-27T04:33:28.404Z,4.03
2022-11-27T04:35:57.301Z,3.98
2022-11-27T04:38:25.011Z,3.98
2022-11-27T04:40:52.686Z,3.99
2022-11-27T04:43:20.322Z,4.01
2022-11-27T04:45:47.835Z,4.02
2022-11-27T04:48:15.452Z,4.02
2022-11-27T04:50:43.059Z,4.02
2022-11-27T04:53:11.944Z,3.97
2022-11-27T04:55:39.461Z,3.95
2022-11-27T04:58:07.046Z,3.92
2022-11-27T05:00:34.613Z,3.93
2022-11-27T05:03:02.238Z,3.91
2022-11-27T05:05:29.857Z,3.90
2022-11-27T05:07:57.411Z,3.92
2022-11-27T05:10:26.405Z,3.93
2022-11-27T05:12:53.979Z,3.89
2022-11-27T05:15:21.654Z,3.81
2022-11-27T05:17:49.233Z,3.70
2022-11-27T05:20:16.913Z,3.61
2022-11-27T05:22:46.092Z,3.57
2022-11-27T05:25:13.676Z,3.54
2022-11-27T05:27:42.608Z,3.55
2022-11-27T05:30:10.589Z,3.56
2022-11-27T05:32:38.686Z,3.58
2022-11-27T05:35:07.043Z,3.57
2022-11-27T05:37:34.542Z,3.58
2022-11-27T05:40:02.030Z,3.58
2022-11-27T05:42:29.553Z,3.58
2022-11-27T05:44:58.790Z,3.61
2022-11-27T05:47:26.548Z,3.63
2022-11-27T05:49:54.403Z,3.64
2022-11-27T05:52:21.942Z,3.64
2022-11-27T05:54:49.502Z,3.65
2022-11-27T05:57:17.061Z,3.69
2022-11-27T05:59:44.650Z,3.70
2022-11-27T06:02:19.540Z,3.73
2022-11-27T06:04:49.216Z,3.78
2022-11-27T06:07:16.865Z,3.79
2022-11-27T06:09:44.478Z,3.81
2022-11-27T06:12:12.054Z,3.83
2022-11-27T06:14:39.822Z,3.83
2022-11-27T06:17:07.535Z,3.84
2022-11-27T06:19:36.427Z,3.84
2022-11-27T06:22:03.951Z,3.86
2022-11-27T06:24:31.464Z,3.85
2022-11-27T06:26:58.961Z,3.85
2022-11-27T06:29:26.489Z,3.86
2022-11-27T06:31:54.054Z,3.87
2022-11-27T06:34:21.676Z,3.86
2022-11-27T06:36:51.125Z,3.85
2022-11-27T06:39:18.710Z,3.82
2022-11-27T06:41:46.313Z,3.80
2022-11-27T06:44:13.842Z,3.80
2022-11-27T06:46:41.448Z,3.82
2022-11-27T06:49:09.006Z,3.85
2022-11-27T06:51:36.598Z,3.84
2022-11-27T06:54:05.819Z,3.83
2022-11-27T06:56:33.504Z,3.80
2022-11-27T06:59:02.390Z,3.79
2022-11-27T07:01:31.613Z,3.80
2022-11-27T07:03:59.508Z,3.79
2022-11-27T07:06:28.243Z,3.77
2022-11-27T07:08:56.320Z,3.77
2022-11-27T07:11:27.591Z,3.76
2022-11-27T07:13:56.997Z,3.77
2022-11-27T07:16:25.038Z,3.74
2022-11-27T07:18:54.561Z,3.68
2022-11-27T07:21:22.655Z,3.64
2022-11-27T07:23:50.190Z,3.61
2022-11-27T07:26:19.426Z,3.56
2022-11-27T07:28:49.048Z,3.50
2022-11-27T07:31:18.981Z,3.46
2022-11-27T07:33:46.578Z,3.44
2022-11-27T07:36:16.317Z,3.40
2022-11-27T07:38:44.234Z,3.38
2022-11-27T07:41:12.510Z,3.37
2022-11-27T07:43:40.833Z,3.40
2022-11-27T07:46:12.816Z,3.44
2022-11-27T07:48:40.481Z,3.49
2022-11-27T07:51:09.042Z,3.54
2022-11-27T07:53:37.403Z,3.56
2022-11-27T07:56:05.411Z,3.60
2022-11-27T07:58:33.177Z,3.66
2022-11-27T08:01:00.843Z,3.70
2022-11-27T08:03:29.812Z,3.70
2022-11-27T08:05:57.326Z,3.68
2022-11-27T08:08:25.894Z,3.68
2022-11-27T08:10:53.426Z,3.68
2022-11-27T08:13:21.121Z,3.66
2022-11-27T08:15:49.377Z,3.62
2022-11-27T08:18:17.819Z,3.62
2022-11-27T08:21:03.765Z,3.63
2022-11-27T08:23:32.691Z,3.62
2022-11-27T08:26:00.329Z,3.60
2022-11-27T08:28:40.465Z,3.59
2022-11-27T08:31:15.849Z,3.57
2022-11-27T08:34:25.771Z,3.57
2022-11-27T08:41:37.313Z,3.62
2022-11-27T08:44:15.857Z,3.62
2022-11-27T08:46:55.626Z,3.63
2022-11-27T08:49:46.993Z,3.62
2022-11-27T08:52:33.110Z,3.58
2022-11-27T08:55:00.731Z,3.55
2022-11-27T08:57:28.317Z,3.57
2022-11-27T08:59:59.598Z,3.61
2022-11-27T09:02:27.186Z,3.63
2022-11-27T09:04:54.731Z,3.68
2022-11-27T09:07:23.667Z,3.77
2022-11-27T09:09:51.311Z,3.81
2022-11-27T09:12:18.937Z,3.84
2022-11-27T09:14:46.535Z,3.86
2022-11-27T09:17:14.155Z,3.84
2022-11-27T09:19:41.755Z,3.86
2022-11-27T09:22:09.389Z,3.88
2022-11-27T09:24:38.822Z,3.91
2022-11-27T09:27:06.710Z,3.97
2022-11-27T09:29:35.384Z,4.05
2022-11-27T09:32:03.045Z,4.12
2022-11-27T09:34:36.027Z,4.20
2022-11-27T09:37:05.311Z,4.27
2022-11-27T09:39:33.834Z,4.34
2022-11-27T09:42:05.967Z,4.40
2022-11-27T09:44:40.024Z,4.40
2022-11-27T09:47:15.516Z,4.33
2022-11-27T09:49:46.753Z,4.34
2022-11-27T09:52:21.244Z,4.30
2022-11-27T09:54:55.422Z,4.31
2022-11-27T09:57:29.341Z,4.36
2022-11-27T10:00:00.998Z,4.44
2022-11-27T10:02:31.966Z,4.58
2022-11-27T10:05:17.630Z,4.74
2022-11-27T10:08:04.714Z,4.97
2022-11-27T10:10:41.039Z,5.18
2022-11-27T10:13:24.048Z,5.37
2022-11-27T10:15:55.407Z,5.60
2022-11-27T10:18:33.232Z,5.81
2022-11-27T10:21:08.668Z,6.07
2022-11-27T10:23:46.875Z,6.37
2022-11-27T10:26:19.816Z,6.64
2022-11-27T10:28:57.650Z,6.93
2022-11-27T10:31:36.376Z,7.20
2022-11-27T10:34:08.193Z,7.48
2022-11-27T10:36:39.919Z,7.76
2022-11-27T10:39:14.895Z,7.99
2022-11-27T10:41:52.748Z,8.19
2022-11-27T10:44:30.864Z,8.38
2022-11-27T10:47:03.502Z,8.54
2022-11-27T10:49:31.819Z,8.69
2022-11-27T10:52:00.181Z,8.80
2022-11-27T10:54:32.286Z,8.91
2022-11-27T10:57:36.418Z,9.01
2022-11-27T11:00:15.138Z,9.16
2022-11-27T11:02:42.992Z,9.39
2022-11-27T11:08:18.299Z,9.83
2022-11-27T11:10:53.577Z,10.04
2022-11-27T11:13:23.604Z,10.16
2022-11-27T11:15:56.252Z,10.21
2022-11-27T11:18:25.901Z,10.31
2022-11-27T11:20:56.589Z,10.37
2022-11-27T11:23:28.870Z,10.41
2022-11-27T11:25:59.345Z,10.45
2022-11-27T11:28:27.500Z,10.46
2022-11-27T11:31:02.145Z,10.45
2022-11-27T11:33:30.334Z,10.52
2022-11-27T11:36:08.440Z,10.57
2022-11-27T11:38:38.056Z,10.62
2022-11-27T11:41:07.841Z,10.57
2022-11-27T11:43:37.464Z,10.50
2022-11-27T11:46:18.579Z,10.44
2022-11-27T11:48:57.368Z,10.31
2022-11-27T11:51:41.403Z,10.19
2022-11-27T11:54:20.725Z,10.08
2022-11-27T11:56:52.705Z,10.05
2022-11-27T11:59:31.281Z,10.12
2022-11-27T12:02:27.334Z,10.27
2022-11-27T12:05:12.448Z,10.38
2022-11-27T12:07:53.751Z,10.34
2022-11-27T12:10:29.077Z,10.24
2022-11-27T12:13:05.897Z,10.16
2022-11-27T12:15:40.471Z,9.96
2022-11-27T12:18:19.240Z,9.67
2022-11-27T12:21:12.259Z,9.39
2022-11-27T12:23:54.406Z,9.16
2022-11-27T12:26:30.008Z,8.95
2022-11-27T12:29:10.305Z,8.78
2022-11-27T12:31:53.044Z,8.58
2022-11-27T12:34:34.854Z,8.37
2022-11-27T12:37:16.757Z,8.21
2022-11-27T12:39:58.786Z,8.09
2022-11-27T12:42:31.620Z,7.98
2022-11-27T12:45:04.868Z,7.94
2022-11-27T12:47:40.382Z,7.88
2022-11-27T12:50:18.779Z,7.83
2022-11-27T12:52:52.006Z,7.73
2022-11-27T12:55:25.344Z,7.64
2022-11-27T12:57:58.691Z,7.62
2022-11-27T13:00:29.316Z,7.57
2022-11-27T13:03:06.378Z,7.52
2022-11-27T13:05:44.447Z,7.47
2022-11-27T13:08:16.757Z,7.53
2022-11-27T13:10:50.095Z,7.58
2022-11-27T13:13:23.019Z,7.59
2022-11-27T13:15:57.177Z,7.55
2022-11-27T13:18:33.553Z,7.51
2022-11-27T13:21:06.717Z,7.42
2022-11-27T13:23:35.294Z,7.28
2022-11-27T13:26:07.338Z,7.24
2022-11-27T13:28:42.901Z,7.23
2022-11-27T13:31:19.423Z,7.21
2022-11-27T13:33:48.398Z,7.22
2022-11-27T13:36:23.030Z,7.25
2022-11-27T13:38:58.196Z,7.31
2022-11-27T13:41:33.363Z,7.37
2022-11-27T13:44:01.589Z,7.41
2022-11-27T13:46:31.479Z,7.42
2022-11-27T13:49:03.033Z,7.40
2022-11-27T13:51:34.125Z,7.38
2022-11-27T13:54:10.052Z,7.27
2022-11-27T13:56:37.889Z,7.18
2022-11-27T13:59:16.493Z,7.14
2022-11-27T14:01:55.098Z,7.12
2022-11-27T14:04:22.719Z,7.11
2022-11-27T14:06:57.041Z,7.04
2022-11-27T14:09:34.272Z,6.97
2022-11-27T14:12:01.849Z,6.95
2022-11-27T14:14:29.947Z,6.95
2022-11-27T14:16:59.080Z,6.90
2022-11-27T14:19:34.580Z,6.74
2022-11-27T14:22:15.538Z,6.66
2022-11-27T14:24:45.839Z,6.59
2022-11-27T14:27:19.714Z,6.50
2022-11-27T14:29:47.661Z,6.43
2022-11-27T14:32:17.041Z,6.39
2022-11-27T14:34:44.914Z,6.31
2022-11-27T14:37:24.318Z,6.20
2022-11-27T14:39:51.878Z,6.12
2022-11-27T14:42:27.886Z,6.11
2022-11-27T14:45:07.913Z,6.00
2022-11-27T14:47:36.575Z,5.89
2022-11-27T14:50:04.614Z,5.75
2022-11-27T14:52:33.793Z,5.64
2022-11-27T14:55:03.225Z,5.55
2022-11-27T14:57:31.759Z,5.47
2022-11-27T15:00:05.856Z,5.37
2022-11-27T15:02:33.603Z,5.24
2022-11-27T15:05:06.992Z,5.15
2022-11-27T15:07:45.212Z,5.09
2022-11-27T15:10:35.639Z,4.99
2022-11-27T15:13:04.615Z,4.86
2022-11-27T15:15:35.584Z,4.80
2022-11-27T15:18:07.247Z,4.75
2022-11-27T15:20:39.209Z,4.67
2022-11-27T15:23:17.329Z,4.57
2022-11-27T15:25:47.363Z,4.45
2022-11-27T15:28:28.840Z,4.34
2022-11-27T15:30:57.733Z,4.25
2022-11-27T15:33:27.485Z,4.20
2022-11-27T15:35:56.831Z,4.17
2022-11-27T15:38:25.728Z,4.12
2022-11-27T15:41:01.633Z,4.08
2022-11-27T15:43:29.270Z,4.03
2022-11-27T15:45:56.964Z,3.95
2022-11-27T15:48:24.616Z,3.91
2022-11-27T15:50:52.218Z,3.89
2022-11-27T15:53:19.914Z,3.89
2022-11-27T15:55:48.805Z,3.92
2022-11-27T15:58:16.709Z,3.93
2022-11-27T16:00:44.288Z,3.91
2022-11-27T16:03:13.175Z,3.84
2022-11-27T16:05:40.954Z,3.79
2022-11-27T16:08:11.673Z,3.79
2022-11-27T16:10:40.482Z,3.79
2022-11-27T16:13:09.359Z,3.75
2022-11-27T16:15:36.927Z,3.67
2022-11-27T16:18:04.837Z,3.63
2022-11-27T16:20:32.426Z,3.56
2022-11-27T16:22:59.914Z,3.50
2022-11-27T16:25:27.413Z,3.43
2022-11-27T16:28:00.984Z,3.42
2022-11-27T16:30:31.555Z,3.40
2022-11-27T16:32:59.096Z,3.39
2022-11-27T16:35:26.903Z,3.41
2022-11-27T16:37:54.391Z,3.42
2022-11-27T16:40:21.977Z,3.41
2022-11-27T16:42:49.497Z,3.41
2022-11-27T16:45:17.138Z,3.40
2022-11-27T16:47:45.969Z,3.37
2022-11-27T16:50:13.469Z,3.35
2022-11-27T16:52:41.004Z,3.29
2022-11-27T16:55:10.453Z,3.29
2022-11-27T16:57:38.001Z,3.29
2022-11-27T17:00:07.025Z,3.26
2022-11-27T17:02:35.647Z,3.26
2022-11-27T17:05:04.623Z,3.28
2022-11-27T17:07:32.217Z,3.29
2022-11-27T17:09:59.782Z,3.29
2022-11-27T17:12:27.344Z,3.29
2022-11-27T17:14:54.915Z,3.29
2022-11-27T17:17:22.422Z,3.28
2022-11-27T17:19:49.994Z,3.29
2022-11-27T17:22:18.816Z,3.33
2022-11-27T17:24:46.344Z,3.33
2022-11-27T17:27:14.699Z,3.28
2022-11-27T17:29:42.602Z,3.28
2022-11-27T17:32:12.848Z,3.28
2022-11-27T17:34:40.419Z,3.29
2022-11-27T17:37:07.976Z,3.31
2022-11-27T17:39:36.908Z,3.30
2022-11-27T17:42:06.696Z,3.34
2022-11-27T17:44:38.673Z,3.34
2022-11-27T17:47:06.335Z,3.32
2022-11-27T17:49:33.883Z,3.30
2022-11-27T17:52:06.148Z,3.30
2022-11-27T17:54:37.470Z,3.30
2022-11-27T17:57:05.087Z,3.30
2022-11-27T17:59:32.625Z,3.30
2022-11-27T18:02:00.272Z,3.30
2022-11-27T18:04:30.713Z,3.31
2022-11-27T18:06:58.443Z,3.33
2022-11-27T18:09:26.109Z,3.36
2022-11-27T18:11:55.940Z,3.33
2022-11-27T18:14:23.466Z,3.33
2022-11-27T18:16:51.073Z,3.32
2022-11-27T18:19:18.657Z,3.34
2022-11-27T18:21:46.234Z,3.31
2022-11-27T18:24:29.184Z,3.27
2022-11-27T18:27:13.536Z,3.28
2022-11-27T18:29:44.535Z,3.28
2022-11-27T18:32:13.765Z,3.29
2022-11-27T18:34:47.148Z,3.30
2022-11-27T18:37:14.936Z,3.31
2022-11-27T18:39:44.505Z,3.33
2022-11-27T18:42:14.231Z,3.34
2022-11-27T18:44:44.986Z,3.36
2022-11-27T18:47:13.231Z,3.36
2022-11-27T18:49:41.332Z,3.38
2022-11-27T18:52:10.411Z,3.38
2022-11-27T18:54:38.129Z,3.38
2022-11-27T18:57:06.886Z,3.37
2022-11-27T18:59:35.838Z,3.36
2022-11-27T19:02:04.461Z,3.34
2022-11-27T19:04:32.139Z,3.29
2022-11-27T19:06:59.654Z,3.24
2022-11-27T19:09:27.202Z,3.21
2022-11-27T19:11:54.695Z,3.20
2022-11-27T19:14:22.195Z,3.18
2022-11-27T19:16:51.172Z,3.16
2022-11-27T19:22:09.345Z,3.17
2022-11-27T19:24:37.969Z,3.15
2022-11-27T19:27:05.506Z,3.13
2022-11-27T19:29:33.038Z,3.11
2022-11-27T19:32:02.002Z,3.10
2022-11-27T19:34:29.662Z,3.09
2022-11-27T19:36:58.118Z,3.10
2022-11-27T19:39:26.849Z,3.12
2022-11-27T19:41:54.406Z,3.13
2022-11-27T19:44:22.064Z,3.12
2022-11-27T19:46:49.623Z,3.12
2022-11-27T19:49:19.118Z,3.09
2022-11-27T19:51:47.189Z,3.05
2022-11-27T19:54:15.770Z,3.01
2022-11-27T19:56:44.019Z,2.99
2022-11-27T19:59:12.812Z,2.93
2022-11-27T20:01:41.280Z,2.89
2022-11-27T20:04:11.231Z,2.91
2022-11-27T20:06:41.008Z,2.91
2022-11-27T20:09:13.488Z,2.91
2022-11-27T20:11:41.003Z,2.93
2022-11-27T20:14:08.579Z,2.93
2022-11-27T20:16:37.305Z,2.93
2022-11-27T20:19:06.596Z,2.95
2022-11-27T20:21:34.297Z,2.97
2022-11-27T20:24:03.417Z,2.94
2022-11-27T20:26:31.390Z,2.88
2022-11-27T20:28:59.817Z,2.83
2022-11-27T20:31:29.470Z,2.78
2022-11-27T20:33:58.833Z,2.76
2022-11-27T20:36:26.670Z,2.74
2022-11-27T20:38:55.459Z,2.76
2022-11-27T20:41:24.694Z,2.77
2022-11-27T20:43:56.631Z,2.76
2022-11-27T20:46:24.847Z,2.78
2022-11-27T20:48:54.028Z,2.79
2022-11-27T20:51:23.942Z,2.82
2022-11-27T20:53:51.449Z,2.85
2022-11-27T20:56:21.407Z,2.87
2022-11-27T20:58:50.317Z,2.88
2022-11-27T21:01:19.692Z,2.91
2022-11-27T21:03:49.203Z,2.92
2022-11-27T21:06:18.917Z,2.96
2022-11-27T21:08:46.784Z,3.00
2022-11-27T21:11:18.224Z,3.06
2022-11-27T21:13:45.790Z,3.09
2022-11-27T21:16:15.419Z,3.12
2022-11-27T21:18:42.940Z,3.14
2022-11-27T21:21:13.301Z,3.12
2022-11-27T21:23:42.243Z,3.12
2022-11-27T21:26:11.713Z,3.11
2022-11-27T21:28:39.388Z,3.12
2022-11-27T21:31:09.179Z,3.10
2022-11-27T21:33:38.534Z,3.08
2022-11-27T21:36:06.567Z,3.11
2022-11-27T21:38:34.103Z,3.11
2022-11-27T21:41:01.632Z,3.07
2022-11-27T21:43:29.174Z,3.05
2022-11-27T21:45:56.725Z,3.01
2022-11-27T21:48:24.460Z,3.02
2022-11-27T21:50:53.357Z,3.03
2022-11-27T21:53:20.965Z,3.03
2022-11-27T21:55:48.486Z,3.03
2022-11-27T21:58:16.033Z,3.03
2022-11-27T22:00:43.702Z,3.04
2022-11-27T22:03:11.236Z,3.03
2022-11-27T22:05:38.737Z,3.02
2022-11-27T22:08:07.679Z,3.00
2022-11-27T22:10:35.226Z,2.96
2022-11-27T22:13:02.788Z,2.94
2022-11-27T22:15:30.308Z,2.97
2022-11-27T22:17:58.783Z,2.96
2022-11-27T22:20:26.329Z,2.96
2022-11-27T22:22:53.849Z,2.96
2022-11-27T22:25:22.726Z,2.99
2022-11-27T22:27:50.265Z,3.00
2022-11-27T22:30:18.422Z,3.03
2022-11-27T22:32:45.981Z,3.07
2022-11-27T22:35:13.467Z,3.09
2022-11-27T22:37:41.002Z,3.12
2022-11-27T22:40:09.274Z,3.13
2022-11-27T22:42:38.497Z,3.17
2022-11-27T22:45:07.506Z,3.19
2022-11-27T22:47:35.049Z,3.22
2022-11-27T22:50:02.973Z,3.20
2022-11-27T22:52:30.525Z,3.18
2022-11-27T22:54:58.030Z,3.16
2022-11-27T22:57:25.735Z,3.13
2022-11-27T22:59:54.552Z,3.08
2022-11-27T23:02:22.479Z,3.06
2022-11-27T23:04:50.159Z,3.06
2022-11-27T23:07:22.273Z,3.01
2022-11-27T23:09:52.406Z,2.97
2022-11-27T23:12:19.933Z,2.92
2022-11-27T23:14:47.483Z,2.89
2022-11-27T23:17:16.336Z,2.87
2022-11-27T23:19:43.885Z,2.87
2022-11-27T23:22:11.394Z,2.87
2022-11-27T23:24:39.294Z,2.88
2022-11-27T23:27:07.009Z,2.91
2022-11-27T23:29:34.540Z,2.94
2022-11-27T23:32:02.078Z,2.94
2022-11-27T23:34:30.946Z,2.95
2022-11-27T23:36:58.444Z,2.96
2022-11-27T23:39:25.990Z,2.99
2022-11-27T23:41:53.550Z,2.99
2022-11-27T23:44:21.574Z,2.93
2022-11-27T23:46:49.142Z,2.91
2022-11-27T23:49:16.651Z,2.89
2022-11-27T23:51:45.493Z,2.88
2022-11-27T23:54:13.471Z,2.91
2022-11-27T23:56:42.995Z,2.92
2022-11-27T23:59:10.770Z,2.94
